Ravenna, Ohio
Current Conditions -  °F | °C
As of 5:21 PM on Tuesday 25 Nov 2014 (Local Time) from KPOV Reporting Station
Overcast Overcast  
Wind Chill: -1°   Ceiling: 2500
Heat Index:   Visibility: 10mi
Dew Point: -4°   Wind: 7mph
Humidity: 65%   Direction: 250°WSW
Pressure: 30.1"   Gusts: NA
Location:  41.16°N, 81.24°W
Report Text: KPOV 252221Z AUTO 25006KT 10SM OVC025 02/M04 A3010 RMK AO2 T00181042
Loading
Personal Weather Stations






























Interactive Weather Map New forecast layout! Learn more

10-Day Weather Forecast

Advertisements
Track Severe Weather on mobile